createdAt,value
2023-02-15T00:01:45.476Z,30.70
2023-02-15T00:06:47.037Z,30.60
2023-02-15T00:11:51.294Z,30.00
2023-02-15T00:16:54.108Z,30.50
2023-02-15T00:21:56.605Z,30.20
2023-02-15T00:26:58.087Z,34.50
2023-02-15T00:31:59.665Z,35.00
2023-02-15T00:37:01.309Z,38.00
2023-02-15T00:42:02.761Z,31.20
2023-02-15T00:47:04.335Z,28.10
2023-02-15T00:52:05.777Z,27.40
2023-02-15T00:57:07.329Z,33.50
2023-02-15T01:02:08.812Z,30.80
2023-02-15T01:07:10.229Z,31.20
2023-02-15T01:12:11.641Z,32.00
2023-02-15T01:17:13.055Z,29.30
2023-02-15T01:22:14.622Z,25.30
2023-02-15T01:27:16.055Z,36.60
2023-02-15T01:32:17.646Z,33.10
2023-02-15T01:37:19.473Z,37.80
2023-02-15T01:42:25.301Z,32.80
2023-02-15T01:47:50.805Z,29.80
2023-02-15T01:53:09.141Z,29.00
2023-02-15T01:58:10.861Z,33.50
2023-02-15T02:03:13.916Z,20.70
2023-02-15T02:08:15.804Z,39.60
2023-02-15T02:13:17.323Z,29.50
2023-02-15T02:18:18.818Z,23.60
2023-02-15T02:23:39.650Z,27.70
2023-02-15T02:28:47.024Z,30.80
2023-02-15T02:34:11.908Z,30.60
2023-02-15T02:39:13.350Z,24.20
2023-02-15T02:44:23.741Z,26.20
2023-02-15T02:49:38.622Z,30.70
2023-02-15T02:54:40.457Z,25.00
2023-02-15T02:59:47.426Z,17.60
2023-02-15T03:04:59.481Z,37.70
2023-02-15T03:10:04.803Z,32.10
2023-02-15T03:15:10.090Z,30.50
2023-02-15T03:20:35.162Z,19.20
2023-02-15T03:25:52.790Z,26.70
2023-02-15T03:30:58.902Z,28.60
2023-02-15T03:36:20.098Z,27.30
2023-02-15T03:41:26.861Z,24.80
2023-02-15T03:46:54.832Z,23.90
2023-02-15T03:51:58.642Z,24.70
2023-02-15T03:57:23.482Z,22.40
2023-02-15T04:02:32.124Z,23.70
2023-02-15T04:07:33.693Z,28.50
2023-02-15T04:12:35.166Z,22.20
2023-02-15T04:17:38.650Z,28.00
2023-02-15T04:22:58.774Z,30.40
2023-02-15T04:28:00.304Z,22.80
2023-02-15T04:33:01.823Z,20.00
2023-02-15T04:38:03.333Z,24.70
2023-02-15T04:43:04.820Z,24.10
2023-02-15T04:48:06.369Z,30.30
2023-02-15T04:53:07.908Z,21.20
2023-02-15T04:58:09.433Z,29.00
2023-02-15T05:03:11.245Z,16.20
2023-02-15T05:08:12.701Z,19.80
2023-02-15T05:13:14.184Z,19.80
2023-02-15T05:18:16.852Z,19.10
2023-02-15T05:23:18.418Z,26.00
2023-02-15T05:28:22.744Z,20.00
2023-02-15T05:33:24.250Z,18.80
2023-02-15T05:38:25.793Z,26.10
2023-02-15T05:43:27.795Z,25.40
2023-02-15T05:48:29.372Z,26.80
2023-02-15T05:53:33.207Z,18.60
2023-02-15T05:58:40.360Z,21.20
2023-02-15T06:03:42.057Z,18.00
2023-02-15T06:08:44.105Z,26.90
2023-02-15T06:13:45.605Z,20.30
2023-02-15T06:18:47.145Z,26.90
2023-02-15T06:23:48.983Z,24.90
2023-02-15T06:28:50.472Z,20.20
2023-02-15T06:33:51.972Z,26.90
2023-02-15T06:38:53.718Z,24.00
2023-02-15T06:43:55.320Z,23.40
2023-02-15T06:48:56.841Z,21.40
2023-02-15T06:53:58.391Z,14.30
2023-02-15T06:58:59.931Z,14.90
2023-02-15T07:04:01.462Z,16.70
2023-02-15T07:09:03.528Z,19.00
2023-02-15T07:14:05.045Z,16.90
2023-02-15T07:19:06.977Z,15.80
2023-02-15T07:24:08.873Z,18.40
2023-02-15T07:29:10.405Z,15.20
2023-02-15T07:34:12.210Z,19.10
2023-02-15T07:39:13.962Z,24.10
2023-02-15T07:44:16.242Z,29.10
2023-02-15T07:49:17.883Z,23.40
2023-02-15T07:54:19.595Z,34.20
2023-02-15T07:59:21.085Z,34.30
2023-02-15T08:04:22.665Z,28.70
2023-02-15T08:09:24.251Z,25.30
2023-02-15T08:14:25.877Z,25.00
2023-02-15T08:19:32.915Z,26.70
2023-02-15T08:24:40.184Z,20.80
2023-02-15T08:29:43.231Z,33.10
2023-02-15T08:34:44.921Z,27.00
2023-02-15T08:39:46.954Z,33.20
2023-02-15T08:44:51.509Z,33.80
2023-02-15T08:49:53.046Z,21.90
2023-02-15T08:54:55.025Z,30.20
2023-02-15T08:59:56.576Z,30.50
2023-02-15T09:04:58.062Z,21.80
2023-02-15T09:09:59.546Z,29.10
2023-02-15T09:15:01.400Z,39.90
2023-02-15T09:20:03.169Z,25.40
2023-02-15T09:25:05.387Z,29.60
2023-02-15T09:30:07.811Z,26.90
2023-02-15T09:35:09.472Z,25.10
2023-02-15T09:40:17.028Z,30.60
2023-02-15T09:45:27.696Z,22.50
2023-02-15T09:50:36.776Z,34.20
2023-02-15T09:56:00.008Z,28.00
2023-02-15T10:01:05.652Z,26.30
2023-02-15T10:06:16.810Z,28.70
2023-02-15T10:11:40.425Z,27.80
2023-02-15T10:16:51.104Z,32.00
2023-02-15T10:22:06.286Z,18.10
2023-02-15T10:27:17.100Z,19.80
2023-02-15T10:32:30.371Z,29.20
2023-02-15T10:38:23.950Z,25.60
2023-02-15T10:43:47.982Z,25.50
2023-02-15T10:49:06.570Z,32.20
2023-02-15T10:54:25.886Z,20.10
2023-02-15T10:59:30.313Z,32.30
2023-02-15T11:04:37.913Z,24.30
2023-02-15T11:09:47.803Z,26.20
2023-02-15T11:15:01.472Z,23.10
2023-02-15T11:20:20.118Z,24.60
2023-02-15T11:25:31.244Z,10.90
2023-02-15T11:30:45.795Z,23.70
2023-02-15T11:35:54.299Z,26.80
2023-02-15T11:41:05.046Z,31.50
2023-02-15T11:46:11.305Z,23.50
2023-02-15T11:51:17.122Z,15.80
2023-02-15T11:56:25.500Z,33.20
2023-02-15T12:01:34.461Z,29.30
2023-02-15T12:06:47.924Z,35.20
2023-02-15T12:11:49.480Z,41.00
2023-02-15T12:16:54.504Z,31.50
2023-02-15T12:21:58.511Z,35.10
2023-02-15T12:27:15.342Z,34.90
2023-02-15T12:32:37.222Z,32.40
2023-02-15T12:42:45.815Z,38.70
2023-02-15T12:47:48.724Z,45.10
2023-02-15T12:52:52.541Z,47.50
2023-02-15T12:58:23.234Z,41.40
2023-02-15T13:03:25.756Z,42.00
2023-02-15T13:08:34.425Z,37.20
2023-02-15T13:14:06.934Z,36.10
2023-02-15T13:19:29.660Z,45.10
2023-02-15T13:24:38.571Z,41.90
2023-02-15T13:29:43.771Z,33.60
2023-02-15T13:34:45.330Z,44.00
2023-02-15T13:39:52.114Z,47.70
2023-02-15T13:45:12.006Z,47.50
2023-02-15T13:50:32.306Z,30.90
2023-02-15T13:55:44.784Z,29.80
2023-02-15T14:01:36.313Z,49.30
2023-02-15T14:06:59.249Z,67.20
2023-02-15T14:12:03.709Z,49.90
2023-02-15T14:17:43.065Z,31.30
2023-02-15T14:23:30.545Z,47.30
2023-02-15T14:28:50.258Z,59.70
2023-02-15T14:33:57.680Z,42.00
2023-02-15T14:39:48.701Z,36.30
2023-02-15T14:45:00.092Z,156.50
2023-02-15T14:50:43.898Z,63.80
2023-02-15T14:55:46.344Z,49.80
2023-02-15T15:00:47.921Z,116.10
2023-02-15T15:05:53.869Z,77.30
2023-02-15T15:10:56.637Z,82.50
2023-02-15T15:16:27.313Z,75.30
2023-02-15T15:21:47.417Z,124.40
2023-02-15T15:26:51.819Z,82.70
2023-02-15T15:31:57.575Z,64.30
2023-02-15T15:37:11.421Z,50.50
2023-02-15T15:42:38.105Z,74.40
2023-02-15T15:48:16.656Z,58.60
2023-02-15T15:53:24.504Z,48.40
2023-02-15T15:58:26.230Z,43.60
2023-02-15T16:03:29.577Z,34.20
2023-02-15T16:08:40.908Z,39.80
2023-02-15T16:13:43.517Z,44.20
2023-02-15T16:18:46.916Z,44.40
2023-02-15T16:23:57.931Z,61.00
2023-02-15T16:29:00.259Z,32.00
2023-02-15T16:34:01.996Z,40.20
2023-02-15T16:39:23.750Z,37.90
2023-02-15T16:44:26.594Z,39.90
2023-02-15T16:49:29.944Z,44.80
2023-02-15T16:54:32.625Z,48.40
2023-02-15T16:59:46.029Z,45.60
2023-02-15T17:05:06.900Z,45.50
2023-02-15T17:10:29.616Z,38.00
2023-02-15T17:15:32.883Z,40.60
2023-02-15T17:20:37.464Z,57.10
2023-02-15T17:25:41.186Z,26.50
2023-02-15T17:30:47.164Z,76.20
2023-02-15T17:36:16.946Z,62.20
2023-02-15T17:41:18.459Z,43.40
2023-02-15T17:46:23.050Z,62.90
2023-02-15T17:51:24.785Z,51.30
2023-02-15T17:56:26.279Z,60.90
2023-02-15T18:01:46.364Z,61.60
2023-02-15T18:07:06.944Z,58.90
2023-02-15T18:12:25.548Z,52.70
2023-02-15T18:17:34.853Z,51.30
2023-02-15T18:22:36.854Z,65.10
2023-02-15T18:27:38.352Z,90.40
2023-02-15T18:32:41.286Z,76.20
2023-02-15T18:37:44.965Z,83.30
2023-02-15T18:42:48.169Z,76.10
2023-02-15T18:47:49.719Z,90.60
2023-02-15T18:52:51.642Z,92.80
2023-02-15T18:57:55.309Z,78.70
2023-02-15T19:02:57.313Z,70.10
2023-02-15T19:08:00.858Z,71.50
2023-02-15T19:13:02.370Z,61.20
2023-02-15T19:18:04.572Z,96.60
2023-02-15T19:23:11.847Z,89.20
2023-02-15T19:28:26.336Z,103.80
2023-02-15T19:33:27.842Z,82.20
2023-02-15T19:38:32.605Z,103.80
2023-02-15T19:43:35.450Z,94.10
2023-02-15T19:48:36.922Z,76.20
2023-02-15T19:53:38.671Z,73.60
2023-02-15T19:58:40.272Z,105.30
2023-02-15T20:03:42.361Z,79.20
2023-02-15T20:08:45.764Z,95.40
2023-02-15T20:13:47.274Z,90.00
2023-02-15T20:18:48.991Z,93.00
2023-02-15T20:23:51.086Z,68.10
2023-02-15T20:28:53.174Z,74.20
2023-02-15T20:33:54.723Z,53.50
2023-02-15T20:39:00.757Z,79.00
2023-02-15T20:44:23.324Z,51.30
2023-02-15T20:49:27.267Z,53.50
2023-02-15T20:54:36.086Z,52.70
2023-02-15T20:59:38.306Z,40.40
2023-02-15T21:04:39.901Z,49.60
2023-02-15T21:09:45.261Z,47.50
2023-02-15T21:14:47.158Z,59.70
2023-02-15T21:19:48.690Z,48.00
2023-02-15T21:24:54.807Z,58.30
2023-02-15T21:29:56.371Z,65.80
2023-02-15T21:34:58.025Z,47.30
2023-02-15T21:39:59.733Z,62.60
2023-02-15T21:45:20.144Z,59.80
2023-02-15T21:50:43.108Z,53.90
2023-02-15T21:55:45.240Z,67.00
2023-02-15T22:00:48.004Z,55.50
2023-02-15T22:05:49.811Z,59.50
2023-02-15T22:10:54.231Z,57.80
2023-02-15T22:20:59.890Z,47.50
2023-02-15T22:26:07.770Z,76.30
2023-02-15T22:31:15.619Z,57.70
2023-02-15T22:36:26.996Z,53.00
2023-02-15T22:41:31.430Z,61.20
2023-02-15T22:51:34.392Z,54.40
2023-02-15T22:56:43.487Z,67.80
2023-02-15T23:01:45.234Z,55.20
2023-02-15T23:06:47.188Z,71.90
2023-02-15T23:11:51.249Z,70.50
2023-02-15T23:16:53.813Z,58.90
2023-02-15T23:21:55.373Z,74.30
2023-02-15T23:27:17.758Z,67.90
2023-02-15T23:32:22.063Z,67.30
2023-02-15T23:37:23.640Z,61.50
2023-02-15T23:42:30.580Z,57.40
2023-02-15T23:47:53.301Z,78.50
2023-02-15T23:52:56.397Z,58.90
2023-02-15T23:57:57.909Z,65.90
